Time;durP1;ratioP1;P1;durP2;ratioP2;P2;SDS_P1;SDS_P2;PMS_P1;PMS_P2;Temp;Humidity;BMP_temperature;BMP_pressure;BME280_temperature;BME280_humidity;BME280_pressure;Samples;Min_cycle;Max_cycle;Signal;HPM_P1;HPM_P2
2023/09/27 00:02:10;;;;;;;15.80;14.30;;;;;;;13.97;100.00;100005.16;4910542;29;20205;-90
2023/09/27 00:04:40;;;;;;;15.93;14.43;;;;;;;13.95;100.00;100009.94;4927883;29;20200;-90
2023/09/27 00:07:11;;;;;;;15.07;13.67;;;;;;;13.92;100.00;100007.72;4925982;29;20296;-91
2023/09/27 00:09:44;;;;;;;16.83;14.27;;;;;;;13.89;100.00;99999.28;4906284;29;20209;-90
2023/09/27 00:12:14;;;;;;;15.33;13.83;;;;;;;13.87;100.00;100002.22;4905806;29;20710;-91
2023/09/27 00:14:42;;;;;;;14.27;12.97;;;;;;;13.85;100.00;100006.19;4922128;29;20658;-90
2023/09/27 00:17:14;;;;;;;15.13;13.83;;;;;;;13.80;100.00;99996.13;4927038;29;20248;-90
2023/09/27 00:19:44;;;;;;;15.07;13.77;;;;;;;13.77;100.00;99998.44;4919899;29;20201;-90
2023/09/27 00:22:16;;;;;;;14.43;13.13;;;;;;;13.73;100.00;99994.56;4944886;29;20208;-91
2023/09/27 00:24:46;;;;;;;14.13;12.93;;;;;;;13.73;100.00;99998.09;4914327;29;20685;-91
2023/09/27 00:27:16;;;;;;;15.07;13.77;;;;;;;13.72;100.00;99999.13;4929274;29;20280;-90
2023/09/27 00:30:00;;;;;;;14.77;13.37;;;;;;;13.69;100.00;99991.53;4911282;29;20706;-90
2023/09/27 00:33:04;;;;;;;13.93;12.63;;;;;;;13.62;100.00;99988.91;4927028;29;20216;-90
2023/09/27 00:35:32;;;;;;;13.83;12.63;;;;;;;13.58;100.00;99987.75;4936870;29;20212;-89
2023/09/27 00:38:00;;;;;;;14.67;13.37;;;;;;;13.57;100.00;99986.13;4924522;29;20240;-90
2023/09/27 00:40:31;;;;;;;14.37;13.03;;;;;;;13.58;100.00;99989.59;4930187;29;20244;-90
2023/09/27 00:43:03;;;;;;;13.93;12.73;;;;;;;13.58;100.00;99984.22;4910131;29;20699;-90
2023/09/27 00:45:31;;;;;;;13.57;12.27;;;;;;;13.51;100.00;99983.53;4909606;29;20732;-90
2023/09/27 00:48:01;;;;;;;14.30;12.97;;;;;;;13.47;100.00;99979.66;4928481;28;20275;-89
2023/09/27 00:50:29;;;;;;;13.83;12.57;;;;;;;13.45;100.00;99981.75;4926323;28;20193;-89
2023/09/27 00:56:10;;;;;;;20.40;18.13;;;;;;;13.39;100.00;99979.97;5091030;23;20241;-89
2023/09/27 00:58:43;;;;;;;23.57;21.07;;;;;;;13.36;100.00;99983.94;4915612;28;20214;-89
2023/09/27 01:01:12;;;;;;;20.00;18.00;;;;;;;13.35;100.00;99984.97;4936023;29;20201;-88
2023/09/27 01:03:43;;;;;;;19.10;17.20;;;;;;;13.33;100.00;99979.03;4937772;29;20702;-89
2023/09/27 01:06:13;;;;;;;16.53;14.83;;;;;;;13.32;100.00;99984.63;4912558;28;20231;-88
2023/09/27 01:08:41;;;;;;;17.33;15.63;;;;;;;13.30;100.00;99982.16;4914081;28;20224;-89
2023/09/27 01:11:09;;;;;;;16.90;15.20;;;;;;;13.29;100.00;99993.16;4937038;28;20241;-89
2023/09/27 01:13:38;;;;;;;16.33;14.63;;;;;;;13.25;100.00;99984.69;4919759;29;20233;-88
2023/09/27 01:16:10;;;;;;;16.40;14.80;;;;;;;13.19;100.00;99986.47;4939586;29;20227;-89
2023/09/27 01:18:40;;;;;;;15.30;14.00;;;;;;;13.17;100.00;99976.97;4909376;28;20195;-88
2023/09/27 01:24:11;;;;;;;14.57;13.17;;;;;;;13.11;100.00;99980.59;5173494;23;20298;-90
2023/09/27 06:27:08;;;;;;;23.77;20.23;;;;;;;13.75;100.00;100068.69;5955111;23;20191;-79
2023/09/27 06:29:37;;;;;;;19.60;17.53;;;;;;;13.77;100.00;100069.28;4938457;29;20202;-79
2023/09/27 06:32:07;;;;;;;18.37;15.87;;;;;;;13.77;100.00;100071.97;4937979;29;20208;-79
2023/09/27 06:34:35;;;;;;;20.17;16.03;;;;;;;13.77;100.00;100079.22;4937702;29;20202;-79
2023/09/27 06:37:02;;;;;;;18.27;16.23;;;;;;;13.79;100.00;100072.56;4938195;29;20201;-79
2023/09/27 06:39:31;;;;;;;18.13;16.23;;;;;;;13.83;100.00;100081.00;4939026;29;20293;-79
2023/09/27 06:41:58;;;;;;;18.73;16.90;;;;;;;13.82;100.00;100085.56;4938106;29;20193;-81
2023/09/27 06:44:28;;;;;;;16.50;15.00;;;;;;;13.86;100.00;100094.00;4934624;29;20276;-79
2023/09/27 06:46:55;;;;;;;17.57;15.97;;;;;;;13.92;100.00;100093.09;4935817;29;20194;-79
2023/09/27 06:49:24;;;;;;;17.27;15.47;;;;;;;13.97;100.00;100094.06;4938392;29;20204;-80
2023/09/27 06:51:51;;;;;;;17.20;15.53;;;;;;;14.00;100.00;100093.56;4937275;29;20312;-79
2023/09/27 06:54:19;;;;;;;16.90;15.30;;;;;;;14.13;100.00;100089.88;4935852;29;20586;-80
2023/09/27 06:56:50;;;;;;;17.20;15.17;;;;;;;14.28;100.00;100087.53;4934372;29;20213;-80
2023/09/27 06:59:23;;;;;;;16.60;15.00;;;;;;;14.45;100.00;100103.91;4934098;29;20213;-82
2023/09/27 07:01:51;;;;;;;17.03;15.50;;;;;;;14.60;100.00;100100.75;4934344;29;20205;-79
2023/09/27 07:04:20;;;;;;;16.70;15.00;;;;;;;14.70;100.00;100114.44;4934222;29;20213;-79
2023/09/27 07:06:47;;;;;;;16.23;14.70;;;;;;;14.79;100.00;100104.97;4934301;29;20288;-79
2023/09/27 07:09:16;;;;;;;16.13;14.33;;;;;;;14.86;100.00;100109.16;4934116;29;20684;-79
2023/09/27 07:11:52;;;;;;;19.00;14.43;;;;;;;14.94;100.00;100110.69;4936072;29;20231;-81
2023/09/27 07:14:20;;;;;;;15.73;14.13;;;;;;;15.05;100.00;100107.16;4942529;29;20214;-79
2023/09/27 07:16:48;;;;;;;15.87;14.33;;;;;;;15.16;100.00;100100.09;4932117;29;20202;-79
2023/09/27 07:19:18;;;;;;;15.70;14.20;;;;;;;15.27;100.00;100101.94;4932696;29;20216;-83
2023/09/27 07:21:51;;;;;;;15.43;13.93;;;;;;;15.37;100.00;100102.97;4928078;29;20205;-80
2023/09/27 07:24:22;;;;;;;15.63;13.77;;;;;;;15.51;100.00;100113.53;4931829;29;20194;-83
2023/09/27 07:26:52;;;;;;;15.10;13.57;;;;;;;15.62;100.00;100105.41;4936168;29;20285;-79
2023/09/27 07:29:20;;;;;;;16.57;14.87;;;;;;;15.72;100.00;100102.06;4934150;29;20225;-79
2023/09/27 07:31:47;;;;;;;15.70;14.10;;;;;;;15.79;100.00;100110.84;4934205;29;20238;-79
2023/09/27 07:34:18;;;;;;;16.10;14.40;;;;;;;15.83;100.00;100102.00;4936010;29;20228;-79
2023/09/27 07:36:47;;;;;;;15.23;13.63;;;;;;;15.93;100.00;100108.66;4944267;29;20198;-79
2023/09/27 07:39:15;;;;;;;16.77;13.60;;;;;;;16.01;100.00;100110.94;4947346;29;20209;-80
2023/09/27 07:41:47;;;;;;;15.70;14.07;;;;;;;16.10;100.00;100118.41;4937754;29;20200;-80
2023/09/27 07:44:17;;;;;;;16.23;13.83;;;;;;;16.22;100.00;100113.78;4937504;29;20194;-81
2023/09/27 07:46:50;;;;;;;17.33;14.33;;;;;;;16.34;100.00;100121.81;4937543;29;20201;-81
2023/09/27 07:49:21;;;;;;;15.30;13.47;;;;;;;16.45;100.00;100110.09;4937601;29;20657;-81
2023/09/27 07:51:56;;;;;;;15.93;14.10;;;;;;;16.54;100.00;100119.44;4937283;29;20205;-81
2023/09/27 07:54:26;;;;;;;14.43;13.23;;;;;;;16.59;100.00;100118.72;4936736;29;20269;-80
2023/09/27 07:57:01;;;;;;;15.30;13.80;;;;;;;16.61;100.00;100113.91;4936917;29;20214;-79
2023/09/27 07:59:32;;;;;;;15.00;13.57;;;;;;;16.65;100.00;100126.69;4937287;29;20208;-80
2023/09/27 08:02:01;;;;;;;15.17;13.57;;;;;;;16.80;100.00;100126.06;4937269;29;20671;-80
2023/09/27 08:04:28;;;;;;;15.43;14.03;;;;;;;16.95;100.00;100120.88;4936875;29;20341;-80
2023/09/27 08:06:57;;;;;;;16.97;15.27;;;;;;;17.09;100.00;100129.47;4937133;29;20221;-80
2023/09/27 08:09:24;;;;;;;15.80;13.90;;;;;;;17.17;100.00;100131.75;4937171;29;20201;-80
2023/09/27 08:12:07;;;;;;;15.53;13.57;;;;;;;17.22;100.00;100131.81;4933232;29;20195;-80
2023/09/27 08:14:36;;;;;;;15.37;13.87;;;;;;;17.24;100.00;100132.38;4943623;29;20189;-80
2023/09/27 08:17:04;;;;;;;15.50;13.93;;;;;;;17.33;100.00;100122.75;4936110;29;20215;-81
2023/09/27 08:19:34;;;;;;;16.67;13.60;;;;;;;17.37;100.00;100128.47;4936813;29;20281;-80
2023/09/27 08:22:01;;;;;;;14.63;13.00;;;;;;;17.46;100.00;100118.84;4937362;29;20233;-80
2023/09/27 08:24:29;;;;;;;15.43;13.83;;;;;;;17.57;100.00;100121.44;4936952;29;20198;-80
2023/09/27 08:26:58;;;;;;;14.93;13.43;;;;;;;17.69;100.00;100124.03;4936349;29;20190;-81
2023/09/27 08:29:26;;;;;;;14.30;12.80;;;;;;;17.79;100.00;100112.47;4936353;29;20665;-79
2023/09/27 08:31:54;;;;;;;14.13;12.80;;;;;;;17.83;100.00;100119.03;4935873;29;21779;-80
2023/09/27 08:34:24;;;;;;;14.17;12.83;;;;;;;17.85;100.00;100119.59;4936359;29;20204;-80
2023/09/27 08:36:52;;;;;;;16.23;12.70;;;;;;;17.82;100.00;100120.13;4936131;29;20198;-80
2023/09/27 08:39:20;;;;;;;14.47;13.10;;;;;;;17.89;100.00;100115.28;4936522;29;20208;-80
2023/09/27 08:41:54;;;;;;;14.53;12.80;;;;;;;17.87;100.00;100118.25;4936897;29;20283;-80
2023/09/27 08:44:25;;;;;;;14.63;13.00;;;;;;;17.85;100.00;100120.41;4919125;29;20251;-80
2023/09/27 08:46:55;;;;;;;14.13;12.77;;;;;;;17.89;100.00;100126.13;4920125;29;20669;-81
2023/09/27 08:49:24;;;;;;;14.90;13.30;;;;;;;17.88;100.00;100121.78;4935211;29;20198;-80
2023/09/27 08:51:52;;;;;;;15.60;13.40;;;;;;;17.88;100.00;100119.91;4919647;29;20614;-80
2023/09/27 08:54:22;;;;;;;15.57;14.10;;;;;;;18.03;100.00;100111.09;4936324;29;20210;-81
2023/09/27 08:56:51;;;;;;;14.83;13.30;;;;;;;18.20;100.00;100108.25;4936503;29;20275;-80
2023/09/27 08:59:19;;;;;;;14.43;12.90;;;;;;;18.32;100.00;100107.03;4936593;29;20211;-83
2023/09/27 09:01:52;;;;;;;15.93;14.13;;;;;;;18.41;100.00;100108.19;4936221;29;20274;-81
2023/09/27 09:04:27;;;;;;;15.90;14.33;;;;;;;18.54;100.00;100111.56;4922272;29;20209;-81
2023/09/27 09:06:57;;;;;;;15.73;13.73;;;;;;;18.66;100.00;100104.88;4931393;29;20217;-81
2023/09/27 09:09:26;;;;;;;14.70;13.37;;;;;;;18.83;100.00;100113.69;4939776;29;20199;-80
2023/09/27 09:12:00;;;;;;;14.90;13.50;;;;;;;18.92;100.00;100103.16;4917166;29;20254;-81
2023/09/27 09:14:44;;;;;;;13.97;12.57;;;;;;;19.06;100.00;100095.34;4938310;29;20218;-81
2023/09/27 09:17:17;;;;;;;14.57;13.17;;;;;;;19.17;100.00;100097.88;4935347;29;20279;-81
2023/09/27 09:20:17;;;;;;;14.80;13.27;;;;;;;19.31;100.00;100100.91;4941348;29;20220;-81
2023/09/27 09:22:50;;;;;;;14.37;12.97;;;;;;;19.44;100.00;100095.00;4935398;29;20209;-81
2023/09/27 09:25:22;;;;;;;13.17;11.90;;;;;;;19.60;100.00;100087.69;4934148;29;20214;-81
2023/09/27 09:28:12;;;;;;;14.33;12.83;;;;;;;19.78;100.00;100096.19;4936891;29;20254;-81
2023/09/27 09:30:44;;;;;;;14.60;13.10;;;;;;;19.91;100.00;100092.16;4945980;29;20221;-81
2023/09/27 09:33:16;;;;;;;13.33;12.13;;;;;;;20.05;100.00;100093.25;4944880;29;20238;-80
2023/09/27 09:35:44;;;;;;;14.43;12.80;;;;;;;20.18;100.00;100086.44;4922441;29;20261;-81
2023/09/27 09:38:26;;;;;;;13.33;11.77;;;;;;;20.35;100.00;100092.47;4939597;29;20209;-81
2023/09/27 09:41:00;;;;;;;12.80;11.60;;;;;;;20.42;100.00;100086.75;4943094;29;20204;-81
2023/09/27 09:43:38;;;;;;;12.90;11.70;;;;;;;20.44;100.00;100088.09;4946741;29;20215;-81
2023/09/27 09:46:10;;;;;;;14.43;12.20;;;;;;;20.54;100.00;100090.81;4946334;29;20193;-80
2023/09/27 09:48:38;;;;;;;15.30;11.82;;;;;;;20.68;100.00;100091.06;4942482;29;20205;-81
2023/09/27 09:51:11;;;;;;;13.25;11.95;;;;;;;20.83;100.00;100085.59;4941069;29;20284;-81
2023/09/27 09:53:40;;;;;;;12.68;11.50;;;;;;;20.97;100.00;100085.84;4949536;29;20247;-80
2023/09/27 09:56:11;;;;;;;12.40;11.00;;;;;;;21.15;100.00;100089.91;4928879;29;20705;-80
2023/09/27 09:58:42;;;;;;;12.65;11.15;;;;;;;21.34;100.00;100083.56;4936056;29;20236;-81
2023/09/27 10:01:13;;;;;;;14.07;10.40;;;;;;;21.53;100.00;100081.84;4934462;29;20248;-81
2023/09/27 10:03:52;;;;;;;11.68;10.45;;;;;;;21.77;100.00;100081.97;4954245;29;20291;-81
2023/09/27 10:06:22;;;;;;;10.73;9.60;;;;;;;22.03;100.00;100082.63;4934401;29;20667;-81
2023/09/27 10:09:15;;;;;;;10.40;9.40;;;;;;;22.22;100.00;100069.13;4925497;29;20205;-80
2023/09/27 10:11:47;;;;;;;12.57;9.32;;;;;;;22.36;100.00;100070.09;4941393;29;20217;-80
2023/09/27 10:14:21;;;;;;;12.38;9.27;;;;;;;22.51;100.00;100072.69;4922077;29;20257;-80
2023/09/27 10:16:53;;;;;;;9.80;8.77;;;;;;;22.65;100.00;100070.91;4921440;29;20205;-80
2023/09/27 10:19:27;;;;;;;11.50;8.85;;;;;;;22.84;100.00;100062.84;4949256;29;20228;-80
2023/09/27 10:22:14;;;;;;;9.30;8.43;;;;;;;23.07;100.00;100066.66;4948371;29;20193;-81
2023/09/27 10:24:44;;;;;;;9.57;8.05;;;;;;;23.22;100.00;100058.31;4947904;29;20282;-81
2023/09/27 10:27:11;;;;;;;8.43;7.60;;;;;;;23.32;100.00;100049.97;4948469;29;20207;-82
2023/09/27 10:29:55;;;;;;;8.82;7.93;;;;;;;23.46;100.00;100039.97;4947653;29;20296;-80
2023/09/27 10:32:24;;;;;;;11.88;7.78;;;;;;;23.62;100.00;100046.84;4946843;29;20681;-80
2023/09/27 10:34:59;;;;;;;12.77;7.82;;;;;;;23.73;100.00;100044.78;4954110;29;20194;-80
2023/09/27 10:38:00;;;;;;;9.13;7.80;;;;;;;23.91;100.00;100033.00;4936714;29;20219;-78
2023/09/27 10:40:41;;;;;;;11.70;7.78;;;;;;;24.08;100.00;100033.25;4937259;29;20965;-81
2023/09/27 10:43:12;;;;;;;7.82;5.85;;;;;;;24.28;100.00;100028.59;4936672;29;20295;-80
2023/09/27 10:45:40;;;;;;;6.72;6.10;;;;;;;24.54;100.00;100016.88;4949819;29;20253;-80
2023/09/27 10:48:18;;;;;;;8.20;5.40;;;;;;;24.93;100.00;100016.44;4940531;29;20199;-81
2023/09/27 10:50:56;;;;;;;7.68;5.10;;;;;;;25.08;100.00;100019.97;4938003;29;20196;-78
2023/09/27 10:53:25;;;;;;;7.15;4.82;;;;;;;25.38;100.00;100011.91;4921673;29;20209;-78
2023/09/27 10:55:52;;;;;;;8.75;5.20;;;;;;;25.50;100.00;99999.59;4945885;29;20208;-80
2023/09/27 10:58:19;;;;;;;6.53;5.07;;;;;;;25.52;100.00;100000.09;4920005;29;20297;-81
2023/09/27 11:01:04;;;;;;;6.18;4.70;;;;;;;25.73;100.00;100002.09;4942502;29;20197;-81
2023/09/27 11:03:36;;;;;;;5.97;4.57;;;;;;;25.92;95.57;99996.41;4944944;29;20197;-79
2023/09/27 11:06:24;;;;;;;6.78;4.65;;;;;;;26.05;93.18;99983.72;4939943;29;20670;-79
2023/09/27 11:09:06;;;;;;;7.38;5.13;;;;;;;26.24;92.37;99984.38;4952121;28;20643;-80
2023/09/27 11:11:43;;;;;;;8.75;4.50;;;;;;;26.34;92.74;99975.06;4951339;29;20201;-81
2023/09/27 11:14:26;;;;;;;7.45;5.07;;;;;;;26.47;93.16;99983.19;4948237;29;20327;-79
2023/09/27 11:16:56;;;;;;;10.60;4.60;;;;;;;26.57;90.42;99973.88;4925128;29;20201;-79
2023/09/27 11:19:29;;;;;;;9.65;4.90;;;;;;;26.70;89.10;99971.00;4949849;29;20204;-79
2023/09/27 11:21:58;;;;;;;8.45;4.72;;;;;;;26.72;85.32;99970.69;4943250;29;20589;-79
2023/09/27 11:24:36;;;;;;;7.47;4.85;;;;;;;26.89;85.16;99969.97;4917438;29;20202;-79
2023/09/27 11:27:08;;;;;;;5.75;4.78;;;;;;;26.95;85.33;99960.44;4947915;29;20193;-79
2023/09/27 11:29:38;;;;;;;7.65;4.75;;;;;;;27.07;85.97;99963.38;4957312;29;20236;-79
2023/09/27 11:32:08;;;;;;;8.25;4.53;;;;;;;27.04;84.54;99959.34;4956880;29;20280;-80
2023/09/27 11:34:38;;;;;;;6.90;4.85;;;;;;;27.15;83.83;99946.91;4951081;29;20225;-79
2023/09/27 11:37:16;;;;;;;6.82;4.78;;;;;;;27.18;83.70;99937.19;4954709;29;20275;-79
2023/09/27 11:39:48;;;;;;;9.98;5.20;;;;;;;27.22;83.45;99937.34;4940193;29;20235;-79
2023/09/27 11:42:28;;;;;;;7.93;4.50;;;;;;;27.32;83.62;99943.34;4953670;29;20205;-79
2023/09/27 11:45:08;;;;;;;8.50;4.72;;;;;;;27.40;82.39;99942.53;4953711;29;20193;-81
2023/09/27 11:47:58;;;;;;;7.10;4.70;;;;;;;27.55;82.26;99941.28;4949696;29;20201;-79
2023/09/27 11:50:29;;;;;;;7.03;4.72;;;;;;;27.60;77.61;99935.63;4942268;29;20229;-79
2023/09/27 11:52:57;;;;;;;10.75;4.65;;;;;;;27.67;77.10;99926.88;4952245;29;20248;-78
2023/09/27 11:55:26;;;;;;;5.22;4.55;;;;;;;27.72;78.11;99927.50;4955156;29;20248;-79
2023/09/27 11:57:57;;;;;;;7.90;4.93;;;;;;;27.83;78.44;99922.47;4950435;29;20213;-79
2023/09/27 12:00:32;;;;;;;6.65;4.53;;;;;;;27.86;79.25;99932.81;4948281;29;20206;-79
2023/09/27 12:02:59;;;;;;;11.75;5.22;;;;;;;27.84;78.70;99930.41;4944958;29;20250;-78
2023/09/27 12:05:28;;;;;;;6.43;4.78;;;;;;;27.89;78.66;99927.47;4948389;29;20194;-78
2023/09/27 12:07:55;;;;;;;5.78;5.28;;;;;;;27.81;82.19;99922.78;4942934;29;20674;-79
2023/09/27 12:10:23;;;;;;;8.85;5.45;;;;;;;27.91;84.04;99919.69;4939534;29;20218;-79
2023/09/27 12:12:55;;;;;;;8.10;5.75;;;;;;;27.80;85.14;99912.13;4941640;29;20217;-79
2023/09/27 12:15:28;;;;;;;7.35;5.50;;;;;;;27.59;84.96;99914.72;4936940;29;20204;-79
2023/09/27 12:17:56;;;;;;;6.75;5.18;;;;;;;27.68;83.59;99920.22;4939245;29;20198;-78
2023/09/27 12:20:30;;;;;;;6.43;5.40;;;;;;;27.58;84.51;99913.91;4944237;28;20212;-79
2023/09/27 12:23:09;;;;;;;7.80;5.53;;;;;;;27.58;87.35;99913.09;4938969;29;20214;-78
2023/09/27 12:25:36;;;;;;;8.10;5.93;;;;;;;27.60;86.12;99910.84;4942753;29;20202;-79
2023/09/27 12:28:11;;;;;;;8.05;5.63;;;;;;;27.47;86.15;99914.56;4938572;29;20257;-80
2023/09/27 12:30:41;;;;;;;11.07;5.60;;;;;;;27.37;86.67;99910.19;4944978;29;20201;-80
2023/09/27 12:33:09;;;;;;;7.78;5.63;;;;;;;27.44;86.75;99910.50;4938073;29;20205;-80
2023/09/27 12:35:39;;;;;;;6.45;5.70;;;;;;;27.34;86.95;99901.78;4947147;29;20209;-79
2023/09/27 12:38:07;;;;;;;7.97;5.50;;;;;;;27.30;87.38;99909.03;4948182;29;20201;-79
2023/09/27 12:40:37;;;;;;;6.72;5.47;;;;;;;27.28;84.63;99898.38;4953331;29;20205;-79
2023/09/27 12:43:04;;;;;;;6.43;4.93;;;;;;;27.25;84.15;99890.75;4954329;29;20201;-79
2023/09/27 12:45:37;;;;;;;7.93;5.60;;;;;;;27.28;86.24;99901.13;4922439;29;20281;-79
2023/09/27 12:48:04;;;;;;;9.48;5.45;;;;;;;27.33;86.31;99897.41;4930541;29;20221;-79
2023/09/27 12:50:40;;;;;;;7.72;5.53;;;;;;;27.32;85.86;99896.59;4945259;29;20208;-79
2023/09/27 12:53:07;;;;;;;7.30;5.32;;;;;;;27.33;86.78;99905.66;4941413;29;20201;-79
2023/09/27 12:55:35;;;;;;;7.30;5.78;;;;;;;27.33;86.25;99892.72;4945758;29;20197;-79
2023/09/27 12:58:03;;;;;;;8.27;5.40;;;;;;;27.32;85.24;99893.84;4943590;29;20236;-79
2023/09/27 13:00:34;;;;;;;6.75;5.10;;;;;;;27.21;85.96;99898.03;4952022;29;20213;-80
2023/09/27 13:03:07;;;;;;;12.38;5.60;;;;;;;27.24;86.75;99891.91;4942486;29;20202;-79
2023/09/27 13:05:38;;;;;;;7.07;5.70;;;;;;;27.22;88.23;99890.59;4942650;29;20208;-81
2023/09/27 13:08:06;;;;;;;9.07;5.50;;;;;;;27.04;87.42;99885.09;4923188;29;20253;-79
2023/09/27 13:10:34;;;;;;;9.00;5.03;;;;;;;27.11;86.28;99870.84;4919096;29;20190;-79
2023/09/27 13:13:02;;;;;;;9.73;5.57;;;;;;;27.02;86.78;99878.28;4941453;29;20272;-79
2023/09/27 13:15:31;;;;;;;9.90;5.00;;;;;;;27.08;85.66;99871.50;4939438;29;20329;-79
2023/09/27 13:17:58;;;;;;;8.73;5.32;;;;;;;27.00;86.13;99864.88;4942306;29;20206;-79
2023/09/27 13:20:27;;;;;;;10.90;5.43;;;;;;;27.04;86.01;99876.84;4936175;29;20193;-79
2023/09/27 13:22:54;;;;;;;7.80;5.53;;;;;;;26.98;85.02;99867.13;4936005;29;20198;-81
2023/09/27 13:25:21;;;;;;;7.47;4.68;;;;;;;27.05;84.07;99863.91;4935983;29;20260;-80
2023/09/27 13:27:48;;;;;;;5.57;5.03;;;;;;;26.98;84.24;99860.81;4928072;29;20238;-80
2023/09/27 13:30:15;;;;;;;10.23;5.18;;;;;;;27.06;85.26;99860.81;4936203;29;20221;-80
2023/09/27 13:33:02;;;;;;;6.85;4.90;;;;;;;27.07;82.99;99854.19;4924386;29;20212;-79
2023/09/27 13:35:30;;;;;;;10.00;4.95;;;;;;;26.95;82.98;99842.22;4926496;29;20213;-79
2023/09/27 13:38:08;;;;;;;10.98;5.28;;;;;;;26.98;82.55;99847.06;4927862;29;20201;-79
2023/09/27 13:40:36;;;;;;;8.10;4.82;;;;;;;26.94;81.43;99841.41;4935834;29;20730;-81
2023/09/27 13:43:04;;;;;;;7.75;4.97;;;;;;;27.03;80.72;99841.41;4935150;29;20214;-82
2023/09/27 13:45:31;;;;;;;5.78;4.72;;;;;;;27.14;80.78;99827.03;4920028;29;20285;-79
2023/09/27 13:47:59;;;;;;;5.95;4.97;;;;;;;27.07;79.75;99825.88;4914071;29;20206;-80
2023/09/27 13:50:32;;;;;;;7.72;4.75;;;;;;;27.19;79.64;99831.56;4924231;29;20194;-80
2023/09/27 13:53:00;;;;;;;7.00;4.45;;;;;;;27.24;78.77;99834.13;4917218;29;20726;-79
2023/09/27 13:55:27;;;;;;;6.05;4.50;;;;;;;27.29;76.86;99822.97;4926156;29;20218;-80
2023/09/27 13:58:00;;;;;;;5.80;4.60;;;;;;;27.27;75.29;99827.16;4921547;29;20218;-82
2023/09/27 14:00:32;;;;;;;6.45;4.78;;;;;;;27.23;75.05;99824.28;4916991;29;20218;-80
2023/09/27 14:03:01;;;;;;;9.27;4.40;;;;;;;27.28;76.30;99810.34;4919114;29;20216;-80
2023/09/27 14:05:28;;;;;;;7.57;4.55;;;;;;;27.22;75.93;99814.38;4916926;29;20245;-80
2023/09/27 14:07:57;;;;;;;7.00;4.22;;;;;;;27.17;76.39;99811.81;4918976;29;20679;-80
2023/09/27 14:10:24;;;;;;;4.85;4.28;;;;;;;27.23;76.71;99809.69;4919432;29;20206;-81
2023/09/27 14:12:54;;;;;;;7.70;4.25;;;;;;;27.21;74.44;99815.53;4898007;29;20202;-80
2023/09/27 14:15:25;;;;;;;9.80;4.40;;;;;;;27.24;74.42;99814.88;4923977;29;20668;-80
2023/09/27 14:17:54;;;;;;;8.32;4.32;;;;;;;27.35;73.37;99807.09;4927010;29;20253;-80
2023/09/27 14:20:25;;;;;;;6.50;4.18;;;;;;;27.34;74.27;99806.28;4923729;29;20215;-80
2023/09/27 14:22:57;;;;;;;7.90;4.05;;;;;;;27.34;73.93;99802.75;4925853;29;20292;-79
2023/09/27 14:25:26;;;;;;;13.27;4.60;;;;;;;27.38;72.71;99803.69;4923707;29;20242;-81
2023/09/27 14:28:02;;;;;;;9.30;4.20;;;;;;;27.33;73.49;99801.13;4907300;29;20234;-80
2023/09/27 14:30:30;;;;;;;5.25;4.15;;;;;;;27.35;72.42;99796.06;4928059;29;20673;-80
2023/09/27 14:33:00;;;;;;;10.02;4.43;;;;;;;27.24;71.80;99795.63;4929350;29;20194;-82
2023/09/27 14:35:31;;;;;;;6.78;4.20;;;;;;;27.16;72.24;99794.50;4934402;29;20312;-80
2023/09/27 14:38:09;;;;;;;6.18;4.40;;;;;;;27.03;72.25;99792.72;4924075;29;20209;-80
2023/09/27 14:40:38;;;;;;;5.10;4.10;;;;;;;27.05;71.26;99792.41;4934256;29;20198;-80
2023/09/27 14:43:12;;;;;;;8.65;4.32;;;;;;;27.03;71.43;99791.91;4928021;29;20197;-80
2023/09/27 14:45:40;;;;;;;7.15;4.85;;;;;;;26.98;71.64;99792.88;4917806;29;20991;-80
2023/09/27 14:48:09;;;;;;;8.10;3.83;;;;;;;26.96;70.23;99781.44;4934375;29;20194;-80
2023/09/27 14:50:40;;;;;;;7.72;4.30;;;;;;;26.91;70.26;99784.34;4928992;29;20256;-80
2023/09/27 14:53:24;;;;;;;8.00;4.10;;;;;;;26.80;71.13;99780.25;4934059;29;20204;-80
2023/09/27 14:55:52;;;;;;;4.78;3.55;;;;;;;26.80;70.51;99780.25;4926677;29;20229;-80
2023/09/27 14:58:23;;;;;;;7.65;4.18;;;;;;;26.71;70.55;99779.44;4931306;29;20228;-80
2023/09/27 15:00:51;;;;;;;7.25;3.97;;;;;;;26.64;72.17;99781.88;4934382;29;20206;-80
2023/09/27 15:03:21;;;;;;;6.47;4.30;;;;;;;26.61;70.60;99777.00;4931835;29;20209;-80
2023/09/27 15:05:51;;;;;;;8.48;3.85;;;;;;;26.58;71.44;99786.72;4925643;29;20190;-80
2023/09/27 15:08:19;;;;;;;8.57;4.30;;;;;;;26.48;73.42;99776.03;4921546;29;20254;-80
2023/09/27 15:10:50;;;;;;;9.75;4.53;;;;;;;26.27;74.15;99773.06;4931903;29;20285;-81
2023/09/27 15:13:18;;;;;;;6.13;4.30;;;;;;;26.25;75.33;99775.34;4933312;29;20269;-82
2023/09/27 15:15:46;;;;;;;5.63;4.63;;;;;;;26.24;74.30;99773.72;4932558;29;20274;-82
2023/09/27 15:18:15;;;;;;;6.07;4.30;;;;;;;26.07;74.61;99770.09;4930117;29;20198;-80
2023/09/27 15:20:49;;;;;;;7.03;4.40;;;;;;;26.08;74.93;99772.50;4934213;29;20285;-80
2023/09/27 15:23:18;;;;;;;8.77;4.10;;;;;;;25.99;74.44;99768.91;4909479;29;20578;-81
2023/09/27 15:25:48;;;;;;;6.53;4.30;;;;;;;25.92;74.39;99765.84;4930137;29;20205;-80
2023/09/27 15:28:16;;;;;;;8.23;4.10;;;;;;;25.89;74.49;99763.75;4941418;29;20718;-82
2023/09/27 15:30:44;;;;;;;7.97;4.30;;;;;;;25.86;74.92;99753.38;4948288;29;20197;-82
2023/09/27 15:33:13;;;;;;;6.20;4.07;;;;;;;25.69;75.50;99767.03;4918079;29;20281;-82
2023/09/27 15:35:53;;;;;;;6.38;3.88;;;;;;;25.62;75.46;99761.19;4953148;29;20713;-82
2023/09/27 15:38:24;;;;;;;9.95;3.90;;;;;;;25.47;75.81;99764.31;4953198;29;20697;-83
2023/09/27 15:40:55;;;;;;;6.20;3.90;;;;;;;25.42;76.68;99766.09;4953361;29;20223;-82
2023/09/27 15:43:26;;;;;;;9.75;7.47;;;;;;;25.31;75.77;99766.66;4950265;29;20669;-82
2023/09/27 15:46:03;;;;;;;11.85;10.63;;;;;;;25.23;76.42;99760.00;4931865;29;20726;-82
2023/09/27 15:48:34;;;;;;;12.95;11.45;;;;;;;25.14;76.47;99761.88;4945831;29;20222;-81
2023/09/27 15:51:11;;;;;;;9.25;4.93;;;;;;;25.11;76.18;99761.66;4938167;29;20216;-82
2023/09/27 15:53:45;;;;;;;13.07;9.65;;;;;;;24.99;76.27;99771.28;4934626;29;20229;-82
2023/09/27 15:56:14;;;;;;;8.27;4.95;;;;;;;24.90;76.98;99762.19;4941811;29;20217;-82
2023/09/27 15:58:48;;;;;;;6.43;4.60;;;;;;;24.74;77.37;99755.41;4936991;29;20293;-82
2023/09/27 16:01:16;;;;;;;5.90;4.38;;;;;;;24.60;78.04;99762.03;4937253;29;20658;-83
2023/09/27 16:03:43;;;;;;;10.88;6.25;;;;;;;24.45;78.88;99771.44;4940934;29;20204;-82
2023/09/27 16:06:17;;;;;;;10.18;6.00;;;;;;;24.42;79.68;99766.53;4946086;29;20198;-82
2023/09/27 16:08:50;;;;;;;14.38;6.78;;;;;;;24.29;80.73;99759.19;4953183;29;20288;-83
2023/09/27 16:11:27;;;;;;;9.00;4.78;;;;;;;24.11;82.67;99763.63;4943246;29;20193;-82
2023/09/27 16:13:56;;;;;;;7.57;5.50;;;;;;;24.00;82.76;99762.22;4950378;29;20209;-82
2023/09/27 16:16:23;;;;;;;10.07;6.00;;;;;;;23.90;83.34;99765.13;4941541;29;20205;-82
2023/09/27 16:18:52;;;;;;;5.35;4.85;;;;;;;23.73;84.84;99763.03;4941168;29;20219;-80
2023/09/27 16:21:19;;;;;;;10.80;4.80;;;;;;;23.60;86.06;99759.16;4937262;29;20225;-81
2023/09/27 16:23:48;;;;;;;7.13;4.28;;;;;;;23.50;86.86;99759.34;4936960;29;20198;-82
2023/09/27 16:26:27;;;;;;;8.73;4.85;;;;;;;23.31;88.21;99764.03;4936981;29;20263;-81
2023/09/27 16:28:54;;;;;;;6.90;4.60;;;;;;;23.18;88.63;99771.09;4925980;29;20283;-81
2023/09/27 16:31:26;;;;;;;6.50;4.40;;;;;;;23.04;89.88;99763.97;4918149;29;20190;-81
2023/09/27 16:33:58;;;;;;;9.63;4.57;;;;;;;22.92;90.73;99760.84;4933775;29;20277;-81
2023/09/27 16:36:28;;;;;;;5.53;4.75;;;;;;;22.78;92.32;99772.53;4918019;29;20201;-81
2023/09/27 16:38:55;;;;;;;10.57;5.22;;;;;;;22.67;92.80;99765.59;4928944;29;20725;-81
2023/09/27 16:41:23;;;;;;;9.43;7.70;;;;;;;22.60;93.97;99761.59;4920139;29;20225;-82
2023/09/27 16:43:56;;;;;;;10.38;6.18;;;;;;;22.46;95.05;99763.44;4919094;29;20253;-81
2023/09/27 16:46:23;;;;;;;11.63;6.63;;;;;;;22.30;96.38;99760.13;4925303;29;20219;-81